Time;durP1;ratioP1;P1;durP2;ratioP2;P2;SDS_P1;SDS_P2;PMS_P1;PMS_P2;Temp;Humidity;BMP_temperature;BMP_pressure;BME280_temperature;BME280_humidity;BME280_pressure;Samples;Min_cycle;Max_cycle;Signal;HPM_P1;HPM_P2
2023/12/12 00:01:56;;;;;;;1.65;0.77;;;;;;;;;;5038939;28;20021;-78
2023/12/12 00:04:21;;;;;;;2.67;0.90;;;;;;;;;;5021508;28;20570;-78
2023/12/12 00:06:47;;;;;;;1.33;0.57;;;;;;;;;;5038485;28;20797;-78
2023/12/12 00:09:12;;;;;;;1.70;0.90;;;;;;;;;;5039322;28;20026;-78
2023/12/12 00:11:37;;;;;;;3.13;1.00;;;;;;;;;;5037782;28;20033;-78
2023/12/12 00:14:02;;;;;;;2.65;0.70;;;;;;;;;;5021386;28;20259;-78
2023/12/12 00:16:28;;;;;;;2.63;0.90;;;;;;;;;;5037017;28;20113;-78
2023/12/12 00:18:53;;;;;;;6.18;0.80;;;;;;;;;;5037281;28;20021;-78
2023/12/12 00:21:18;;;;;;;2.95;0.93;;;;;;;;;;5038273;28;20443;-78
2023/12/12 00:23:44;;;;;;;1.27;0.80;;;;;;;;;;5037704;28;20021;-79
2023/12/12 00:26:12;;;;;;;1.73;0.82;;;;;;;;;;5038132;28;20035;-77
2023/12/12 00:28:38;;;;;;;2.60;0.88;;;;;;;;;;5020340;28;20151;-78
2023/12/12 00:31:03;;;;;;;6.55;0.80;;;;;;;;;;5020111;28;20056;-78
2023/12/12 00:33:29;;;;;;;3.40;1.08;;;;;;;;;;5020168;28;20396;-77
2023/12/12 00:35:54;;;;;;;1.42;0.70;;;;;;;;;;5019674;28;20109;-78
2023/12/12 00:38:20;;;;;;;2.78;1.00;;;;;;;;;;5037994;28;20041;-78
2023/12/12 00:40:52;;;;;;;3.40;1.10;;;;;;;;;;5038094;28;20033;-78
2023/12/12 00:43:17;;;;;;;1.63;0.80;;;;;;;;;;5037056;28;20259;-78
2023/12/12 00:45:43;;;;;;;5.15;1.17;;;;;;;;;;5037905;28;20021;-78
2023/12/12 00:48:08;;;;;;;3.17;0.80;;;;;;;;;;5020010;28;20041;-78
2023/12/12 00:50:33;;;;;;;0.88;0.80;;;;;;;;;;5037364;28;20021;-78
2023/12/12 00:52:58;;;;;;;3.95;1.23;;;;;;;;;;5036768;28;20021;-78
2023/12/12 00:55:24;;;;;;;4.13;0.90;;;;;;;;;;5036340;28;20033;-78
2023/12/12 00:57:49;;;;;;;1.80;0.80;;;;;;;;;;5036430;28;20280;-78
2023/12/12 01:00:15;;;;;;;4.10;0.80;;;;;;;;;;5036773;28;20384;-78
2023/12/12 01:02:40;;;;;;;1.27;0.98;;;;;;;;;;5036983;28;20738;-78
2023/12/12 01:05:06;;;;;;;3.03;1.20;;;;;;;;;;5038467;28;20033;-77
2023/12/12 01:07:31;;;;;;;2.33;1.00;;;;;;;;;;5038116;28;20064;-78
2023/12/12 01:09:56;;;;;;;3.83;1.00;;;;;;;;;;5038167;28;20059;-78
2023/12/12 01:12:22;;;;;;;4.00;1.03;;;;;;;;;;5019723;28;20262;-78
2023/12/12 01:14:47;;;;;;;3.80;1.00;;;;;;;;;;5037131;28;20397;-78
2023/12/12 01:17:12;;;;;;;3.03;0.93;;;;;;;;;;5037404;28;20293;-78
2023/12/12 01:19:37;;;;;;;1.90;0.90;;;;;;;;;;5037406;28;20258;-78
2023/12/12 01:22:03;;;;;;;1.17;0.87;;;;;;;;;;5037424;28;20325;-78
2023/12/12 01:24:30;;;;;;;4.22;0.80;;;;;;;;;;5019536;28;20246;-78
2023/12/12 01:26:55;;;;;;;2.30;0.98;;;;;;;;;;5037372;28;20060;-79
2023/12/12 01:29:20;;;;;;;2.27;1.10;;;;;;;;;;5037731;28;20030;-79
2023/12/12 01:31:45;;;;;;;4.17;1.20;;;;;;;;;;5037741;28;20282;-78
2023/12/12 01:34:10;;;;;;;6.27;1.00;;;;;;;;;;5037818;28;20263;-78
2023/12/12 01:36:36;;;;;;;2.85;1.02;;;;;;;;;;5037890;28;20293;-78
2023/12/12 01:39:02;;;;;;;1.80;1.02;;;;;;;;;;5037602;28;20036;-80
2023/12/12 01:41:27;;;;;;;3.65;1.00;;;;;;;;;;5019734;28;20045;-78
2023/12/12 01:43:52;;;;;;;3.97;1.20;;;;;;;;;;5037552;28;20028;-78
2023/12/12 01:46:18;;;;;;;3.17;0.93;;;;;;;;;;5037905;28;20379;-78
2023/12/12 01:48:44;;;;;;;5.28;1.15;;;;;;;;;;5037074;28;20025;-78
2023/12/12 01:51:10;;;;;;;1.30;0.80;;;;;;;;;;5037457;28;20035;-78
2023/12/12 01:53:38;;;;;;;4.50;1.20;;;;;;;;;;5019375;28;20095;-76
2023/12/12 01:56:05;;;;;;;2.85;1.02;;;;;;;;;;5019979;28;20071;-78
2023/12/12 01:58:33;;;;;;;3.70;1.10;;;;;;;;;;5019718;28;20060;-79
2023/12/12 02:00:58;;;;;;;2.55;1.20;;;;;;;;;;5037622;28;20029;-78
2023/12/12 02:03:24;;;;;;;3.00;0.80;;;;;;;;;;5037508;28;20028;-78
2023/12/12 02:05:50;;;;;;;2.90;0.90;;;;;;;;;;5037415;28;20033;-78
2023/12/12 02:08:16;;;;;;;2.75;0.90;;;;;;;;;;5020079;28;20046;-79
2023/12/12 02:10:41;;;;;;;2.20;1.00;;;;;;;;;;5019604;28;20392;-79
2023/12/12 02:13:06;;;;;;;5.97;1.13;;;;;;;;;;5036802;28;20025;-79
2023/12/12 02:15:32;;;;;;;2.77;1.07;;;;;;;;;;5035585;28;20504;-78
2023/12/12 02:17:57;;;;;;;2.95;0.90;;;;;;;;;;5034484;28;20746;-78
2023/12/12 02:20:22;;;;;;;4.50;0.90;;;;;;;;;;5034356;28;20025;-77
2023/12/12 02:22:48;;;;;;;1.27;0.75;;;;;;;;;;5034433;28;20033;-77
2023/12/12 02:25:17;;;;;;;4.25;1.10;;;;;;;;;;5035669;28;20148;-79
2023/12/12 02:27:42;;;;;;;3.30;1.00;;;;;;;;;;5036325;28;20032;-78
2023/12/12 02:30:08;;;;;;;3.22;0.93;;;;;;;;;;5035768;28;20025;-78
2023/12/12 02:32:33;;;;;;;2.20;1.00;;;;;;;;;;5036046;28;20029;-78
2023/12/12 02:35:00;;;;;;;3.22;0.98;;;;;;;;;;5036194;28;20480;-78
2023/12/12 02:37:25;;;;;;;2.22;0.90;;;;;;;;;;5039532;28;20029;-77
2023/12/12 02:39:50;;;;;;;3.45;0.93;;;;;;;;;;5031930;28;20037;-77
2023/12/12 02:42:15;;;;;;;1.77;1.10;;;;;;;;;;5049330;28;20032;-77
2023/12/12 02:44:41;;;;;;;2.33;1.07;;;;;;;;;;5043480;28;20116;-78
2023/12/12 02:47:06;;;;;;;3.28;1.00;;;;;;;;;;5035812;28;20356;-78
2023/12/12 02:49:31;;;;;;;1.30;0.90;;;;;;;;;;5035318;28;20026;-78
2023/12/12 02:51:56;;;;;;;2.25;0.82;;;;;;;;;;5035325;28;20033;-79
2023/12/12 02:54:22;;;;;;;3.15;0.85;;;;;;;;;;5035214;28;20018;-78
2023/12/12 02:56:47;;;;;;;1.83;0.77;;;;;;;;;;5035684;28;20029;-78
2023/12/12 02:59:12;;;;;;;1.58;0.75;;;;;;;;;;5035095;28;20274;-77
2023/12/12 03:01:38;;;;;;;2.15;0.80;;;;;;;;;;5034912;28;20033;-77
2023/12/12 03:04:03;;;;;;;2.15;0.90;;;;;;;;;;5015482;28;20033;-77
2023/12/12 03:06:28;;;;;;;2.35;0.98;;;;;;;;;;5033080;28;20112;-77
2023/12/12 03:08:53;;;;;;;1.10;0.80;;;;;;;;;;5034824;28;20029;-77
2023/12/12 03:11:19;;;;;;;1.33;0.77;;;;;;;;;;5033035;28;20324;-77
2023/12/12 03:13:44;;;;;;;2.43;1.00;;;;;;;;;;5015626;28;20262;-78
2023/12/12 03:16:09;;;;;;;1.63;0.87;;;;;;;;;;5034092;28;20290;-79
2023/12/12 03:18:34;;;;;;;2.70;0.80;;;;;;;;;;5016694;28;20274;-79
2023/12/12 03:21:00;;;;;;;0.80;0.77;;;;;;;;;;5036109;28;20071;-78
2023/12/12 03:23:25;;;;;;;1.60;0.98;;;;;;;;;;5016931;28;20349;-78
2023/12/12 03:25:51;;;;;;;4.00;1.10;;;;;;;;;;5035259;28;20412;-79
2023/12/12 03:28:16;;;;;;;1.50;0.70;;;;;;;;;;5035366;28;20071;-78
2023/12/12 03:30:41;;;;;;;1.25;0.90;;;;;;;;;;5018456;28;20485;-78
2023/12/12 03:33:06;;;;;;;1.90;0.90;;;;;;;;;;5036188;28;20021;-78
2023/12/12 03:35:32;;;;;;;1.60;0.70;;;;;;;;;;5035890;28;20031;-78
2023/12/12 03:37:57;;;;;;;2.43;0.97;;;;;;;;;;5036111;28;20068;-78
2023/12/12 03:40:22;;;;;;;1.17;0.80;;;;;;;;;;5017912;28;20263;-78
2023/12/12 03:42:47;;;;;;;1.00;0.80;;;;;;;;;;5036022;28;20270;-78
2023/12/12 03:45:13;;;;;;;0.98;0.80;;;;;;;;;;5036000;28;20263;-78
2023/12/12 03:47:38;;;;;;;2.50;0.80;;;;;;;;;;5035756;28;20542;-78
2023/12/12 03:50:04;;;;;;;2.63;0.80;;;;;;;;;;5035205;28;20029;-78
2023/12/12 03:52:29;;;;;;;1.67;0.80;;;;;;;;;;5034638;28;20251;-78
2023/12/12 03:54:54;;;;;;;0.70;0.70;;;;;;;;;;5033601;28;20025;-78
2023/12/12 03:57:19;;;;;;;3.10;0.80;;;;;;;;;;5034333;28;20393;-78
2023/12/12 03:59:45;;;;;;;1.57;0.87;;;;;;;;;;5033527;28;20290;-79
2023/12/12 04:02:10;;;;;;;1.77;0.90;;;;;;;;;;5033628;28;20255;-78
2023/12/12 04:04:35;;;;;;;2.37;0.90;;;;;;;;;;5016172;28;20258;-78
2023/12/12 04:07:00;;;;;;;1.90;0.70;;;;;;;;;;5033291;28;20304;-78
2023/12/12 04:09:25;;;;;;;0.83;0.77;;;;;;;;;;5015152;28;20250;-78
2023/12/12 04:11:51;;;;;;;3.73;0.90;;;;;;;;;;5033080;28;20300;-78
2023/12/12 04:14:16;;;;;;;1.27;1.00;;;;;;;;;;5033746;28;20258;-78
2023/12/12 04:16:41;;;;;;;4.22;1.05;;;;;;;;;;5033428;28;20336;-78
2023/12/12 04:19:06;;;;;;;1.30;1.00;;;;;;;;;;5034630;28;20396;-78
2023/12/12 04:21:32;;;;;;;1.17;0.90;;;;;;;;;;5017012;28;20626;-78
2023/12/12 04:23:57;;;;;;;1.60;1.03;;;;;;;;;;5034845;28;20626;-78
2023/12/12 04:26:22;;;;;;;1.30;1.03;;;;;;;;;;5035113;28;20614;-78
2023/12/12 04:28:47;;;;;;;2.85;1.20;;;;;;;;;;5018100;28;20633;-78
2023/12/12 04:31:17;;;;;;;1.33;0.90;;;;;;;;;;5017080;28;20506;-78
2023/12/12 04:33:42;;;;;;;1.17;0.98;;;;;;;;;;5017107;28;20037;-78
2023/12/12 04:36:08;;;;;;;4.32;1.20;;;;;;;;;;5034567;28;20030;-77
2023/12/12 04:38:35;;;;;;;3.72;1.35;;;;;;;;;;5034389;28;20068;-77
2023/12/12 04:41:03;;;;;;;1.70;1.13;;;;;;;;;;5035042;28;20056;-77
2023/12/12 04:43:29;;;;;;;1.45;1.15;;;;;;;;;;5037514;28;20021;-78
2023/12/12 04:45:54;;;;;;;2.20;1.27;;;;;;;;;;5037771;28;20079;-77
2023/12/12 04:48:19;;;;;;;2.97;1.30;;;;;;;;;;5037905;28;20116;-77
2023/12/12 04:50:44;;;;;;;3.47;1.20;;;;;;;;;;5038438;28;20263;-78
2023/12/12 04:53:10;;;;;;;2.97;1.10;;;;;;;;;;5037685;28;20259;-77
2023/12/12 04:55:35;;;;;;;3.30;1.30;;;;;;;;;;5037380;28;20333;-77
2023/12/12 04:58:00;;;;;;;5.77;1.20;;;;;;;;;;5038348;28;20263;-78
2023/12/12 05:00:25;;;;;;;1.77;1.27;;;;;;;;;;5019367;28;20388;-79
2023/12/12 05:02:50;;;;;;;2.90;1.33;;;;;;;;;;5036345;28;20044;-76
2023/12/12 05:05:16;;;;;;;2.00;1.10;;;;;;;;;;5018972;28;20279;-77
2023/12/12 05:07:41;;;;;;;2.77;1.33;;;;;;;;;;5038010;28;20278;-78
2023/12/12 05:10:07;;;;;;;1.50;1.20;;;;;;;;;;5037931;28;20263;-78
2023/12/12 05:12:32;;;;;;;2.72;1.20;;;;;;;;;;5036556;28;20273;-78
2023/12/12 05:14:57;;;;;;;2.00;1.30;;;;;;;;;;5036719;28;20391;-79
2023/12/12 05:17:22;;;;;;;3.05;1.30;;;;;;;;;;5036345;28;20732;-77
2023/12/12 05:19:48;;;;;;;2.42;1.13;;;;;;;;;;5018353;28;20030;-77
2023/12/12 05:22:13;;;;;;;2.30;1.30;;;;;;;;;;5035793;28;20033;-77
2023/12/12 05:24:38;;;;;;;7.77;1.40;;;;;;;;;;5035675;28;20402;-77
2023/12/12 05:27:03;;;;;;;2.95;1.38;;;;;;;;;;5037643;28;20724;-77
2023/12/12 05:29:31;;;;;;;2.90;1.20;;;;;;;;;;5037637;28;20548;-77
2023/12/12 05:31:56;;;;;;;2.40;1.40;;;;;;;;;;5037143;28;20125;-78
2023/12/12 05:34:21;;;;;;;4.83;1.43;;;;;;;;;;5037954;28;20078;-77
2023/12/12 05:36:46;;;;;;;3.50;1.50;;;;;;;;;;5037615;28;20274;-78
2023/12/12 05:39:12;;;;;;;3.27;1.30;;;;;;;;;;5037303;28;20270;-77
2023/12/12 05:41:37;;;;;;;2.40;1.55;;;;;;;;;;5019268;28;20275;-78
2023/12/12 05:44:02;;;;;;;2.43;1.50;;;;;;;;;;5019108;28;20028;-78
2023/12/12 05:46:27;;;;;;;2.17;1.33;;;;;;;;;;5036541;28;20258;-79
2023/12/12 05:48:53;;;;;;;2.43;1.67;;;;;;;;;;5019183;28;20041;-78
2023/12/12 05:51:18;;;;;;;3.87;1.90;;;;;;;;;;5019848;28;20270;-78
2023/12/12 05:53:43;;;;;;;3.43;1.80;;;;;;;;;;5036298;28;20258;-78
2023/12/12 05:56:08;;;;;;;3.47;1.90;;;;;;;;;;5018457;28;20301;-78
2023/12/12 05:58:34;;;;;;;7.22;2.03;;;;;;;;;;5036196;28;20282;-78
2023/12/12 06:00:59;;;;;;;3.97;2.30;;;;;;;;;;5035926;28;20523;-77
2023/12/12 06:03:24;;;;;;;5.93;1.95;;;;;;;;;;5036000;28;20052;-78
2023/12/12 06:05:49;;;;;;;5.60;2.23;;;;;;;;;;5037747;28;20116;-79
2023/12/12 06:08:16;;;;;;;3.60;2.10;;;;;;;;;;5039214;28;20316;-78
2023/12/12 06:10:41;;;;;;;6.57;2.00;;;;;;;;;;5019170;28;20642;-77
2023/12/12 06:13:07;;;;;;;3.10;1.70;;;;;;;;;;5039685;28;20037;-78
2023/12/12 06:15:33;;;;;;;3.88;1.90;;;;;;;;;;5041321;28;20025;-77
2023/12/12 06:17:58;;;;;;;6.40;1.77;;;;;;;;;;5036417;28;20025;-78
2023/12/12 06:20:25;;;;;;;3.10;1.77;;;;;;;;;;5018393;28;20080;-79
2023/12/12 06:22:50;;;;;;;3.08;1.60;;;;;;;;;;5037494;28;20254;-78
2023/12/12 06:25:15;;;;;;;5.80;2.17;;;;;;;;;;5025181;28;20014;-78
2023/12/12 06:27:40;;;;;;;4.00;2.00;;;;;;;;;;5020996;28;20021;-80
2023/12/12 06:30:06;;;;;;;5.07;2.10;;;;;;;;;;5038902;28;20297;-79
2023/12/12 06:32:32;;;;;;;4.60;1.80;;;;;;;;;;5034896;28;20257;-76
2023/12/12 06:34:59;;;;;;;3.47;2.10;;;;;;;;;;5016422;28;20022;-77
2023/12/12 06:37:24;;;;;;;3.33;1.90;;;;;;;;;;5033828;28;20293;-76
2023/12/12 06:39:50;;;;;;;5.37;1.83;;;;;;;;;;5033805;28;20107;-75
2023/12/12 06:42:15;;;;;;;3.67;1.80;;;;;;;;;;5016471;28;20289;-77
2023/12/12 06:44:40;;;;;;;5.20;1.63;;;;;;;;;;5045645;28;20312;-76
2023/12/12 06:47:06;;;;;;;4.13;1.80;;;;;;;;;;5017801;28;20263;-76
2023/12/12 06:49:32;;;;;;;3.33;1.80;;;;;;;;;;5033561;28;20021;-76
2023/12/12 06:51:57;;;;;;;3.92;1.85;;;;;;;;;;5032961;28;20267;-75
2023/12/12 06:54:22;;;;;;;3.67;2.00;;;;;;;;;;5015349;28;20481;-76
2023/12/12 06:56:48;;;;;;;3.10;1.50;;;;;;;;;;5015336;28;20785;-76
2023/12/12 06:59:13;;;;;;;4.15;1.80;;;;;;;;;;5033146;28;20070;-75
2023/12/12 07:01:38;;;;;;;7.27;1.83;;;;;;;;;;5034139;28;20034;-79
2023/12/12 07:04:04;;;;;;;6.57;2.00;;;;;;;;;;5014811;28;20316;-75
2023/12/12 07:06:29;;;;;;;10.90;1.77;;;;;;;;;;5033550;28;20021;-75
2023/12/12 07:08:54;;;;;;;6.05;1.70;;;;;;;;;;5031286;28;20025;-75
2023/12/12 07:11:19;;;;;;;4.82;2.28;;;;;;;;;;5032288;28;20522;-75
2023/12/12 07:13:45;;;;;;;2.75;1.70;;;;;;;;;;5031999;28;20032;-75
2023/12/12 07:16:10;;;;;;;2.90;1.58;;;;;;;;;;5030981;28;20057;-74
2023/12/12 07:18:41;;;;;;;3.60;1.75;;;;;;;;;;5033056;28;20022;-74
2023/12/12 07:21:06;;;;;;;5.07;1.95;;;;;;;;;;5032850;28;20405;-75
2023/12/12 07:23:31;;;;;;;3.90;1.85;;;;;;;;;;5032628;28;20049;-75
2023/12/12 07:25:58;;;;;;;4.07;2.03;;;;;;;;;;5015062;28;20017;-75
2023/12/12 07:28:23;;;;;;;3.95;1.80;;;;;;;;;;5032815;28;20109;-75
2023/12/12 07:30:49;;;;;;;5.32;1.90;;;;;;;;;;5032681;28;20500;-75
2023/12/12 07:33:14;;;;;;;6.65;2.08;;;;;;;;;;5032901;28;20032;-75
2023/12/12 07:35:39;;;;;;;2.80;1.80;;;;;;;;;;5032665;28;20444;-75
2023/12/12 07:38:05;;;;;;;4.68;2.00;;;;;;;;;;5033064;28;20025;-75
2023/12/12 07:40:30;;;;;;;3.05;1.77;;;;;;;;;;5014815;28;20057;-75
2023/12/12 07:42:56;;;;;;;2.42;1.58;;;;;;;;;;5016269;28;20454;-75
2023/12/12 07:45:21;;;;;;;3.70;2.00;;;;;;;;;;5032423;28;20014;-74
2023/12/12 07:47:47;;;;;;;2.50;1.70;;;;;;;;;;5032984;28;20037;-77
2023/12/12 07:50:12;;;;;;;3.45;1.70;;;;;;;;;;5032637;28;20259;-76
2023/12/12 07:52:37;;;;;;;8.00;2.08;;;;;;;;;;5032994;28;20117;-76
2023/12/12 07:55:03;;;;;;;4.10;2.00;;;;;;;;;;5033010;28;20143;-75
2023/12/12 07:57:28;;;;;;;4.30;2.05;;;;;;;;;;5015403;28;20025;-76
2023/12/12 07:59:53;;;;;;;7.85;2.20;;;;;;;;;;5033068;28;20384;-76
2023/12/12 08:02:18;;;;;;;3.05;1.83;;;;;;;;;;5032794;28;20076;-76
2023/12/12 08:04:44;;;;;;;2.75;1.50;;;;;;;;;;5032508;28;20091;-75
2023/12/12 08:07:09;;;;;;;2.83;1.67;;;;;;;;;;5033018;28;20028;-75
2023/12/12 08:09:34;;;;;;;5.73;1.60;;;;;;;;;;5032812;28;20025;-75
2023/12/12 08:12:00;;;;;;;2.47;1.50;;;;;;;;;;5032706;28;20274;-76
2023/12/12 08:14:26;;;;;;;3.40;1.47;;;;;;;;;;5014718;28;20032;-76
2023/12/12 08:16:51;;;;;;;4.13;1.40;;;;;;;;;;5017588;28;20760;-76
2023/12/12 08:19:16;;;;;;;2.65;1.25;;;;;;;;;;5018591;28;20127;-75
2023/12/12 08:21:42;;;;;;;2.33;1.27;;;;;;;;;;5036603;28;20038;-76
2023/12/12 08:24:07;;;;;;;5.43;1.63;;;;;;;;;;5036238;28;20036;-75
2023/12/12 08:26:43;;;;;;;2.50;1.33;;;;;;;;;;5036557;28;20250;-76
2023/12/12 08:29:12;;;;;;;3.03;1.50;;;;;;;;;;5036881;28;20107;-75
2023/12/12 08:31:38;;;;;;;7.38;1.60;;;;;;;;;;5036410;28;20108;-75
2023/12/12 08:34:04;;;;;;;3.83;1.37;;;;;;;;;;5019044;28;20484;-76
2023/12/12 08:36:29;;;;;;;2.10;1.50;;;;;;;;;;5018863;28;20642;-76
2023/12/12 08:38:55;;;;;;;2.67;1.70;;;;;;;;;;5018429;28;20022;-75
2023/12/12 08:41:21;;;;;;;4.65;1.50;;;;;;;;;;5036174;28;20075;-76
2023/12/12 08:43:46;;;;;;;4.60;1.70;;;;;;;;;;5036169;28;20029;-75
2023/12/12 08:46:11;;;;;;;5.55;1.65;;;;;;;;;;5038114;28;20032;-75
2023/12/12 08:48:36;;;;;;;3.70;1.50;;;;;;;;;;5018483;28;20029;-76
2023/12/12 08:51:02;;;;;;;4.70;1.60;;;;;;;;;;5036869;28;20259;-76
2023/12/12 08:53:27;;;;;;;4.63;1.70;;;;;;;;;;5039633;28;20072;-75
2023/12/12 08:55:55;;;;;;;2.97;1.30;;;;;;;;;;5038288;28;20056;-75
2023/12/12 08:58:25;;;;;;;3.63;1.48;;;;;;;;;;5036630;28;20341;-76
2023/12/12 09:00:54;;;;;;;5.35;1.55;;;;;;;;;;5036004;28;20067;-75
2023/12/12 09:03:19;;;;;;;2.83;1.40;;;;;;;;;;5036165;28;20060;-76
2023/12/12 09:05:44;;;;;;;12.77;1.60;;;;;;;;;;5018889;28;20033;-76
2023/12/12 09:08:10;;;;;;;3.25;1.73;;;;;;;;;;5035484;28;20381;-75
2023/12/12 09:10:36;;;;;;;2.63;1.20;;;;;;;;;;5035561;28;20029;-76
2023/12/12 09:13:02;;;;;;;4.00;1.55;;;;;;;;;;5035452;28;20459;-76
2023/12/12 09:15:27;;;;;;;3.53;1.60;;;;;;;;;;5017631;28;20120;-76
2023/12/12 09:17:52;;;;;;;2.93;1.43;;;;;;;;;;5035221;28;20484;-76
2023/12/12 09:20:17;;;;;;;3.03;1.55;;;;;;;;;;5035163;28;20677;-76
2023/12/12 09:22:42;;;;;;;9.23;1.60;;;;;;;;;;5035081;28;20027;-76
2023/12/12 09:25:08;;;;;;;2.40;1.40;;;;;;;;;;5017679;28;20262;-76
2023/12/12 09:27:33;;;;;;;3.37;1.40;;;;;;;;;;5034886;28;20263;-76
2023/12/12 09:29:58;;;;;;;5.77;1.50;;;;;;;;;;5017113;28;20266;-76
2023/12/12 09:32:23;;;;;;;6.17;2.00;;;;;;;;;;5035137;28;20254;-75
2023/12/12 09:34:48;;;;;;;5.57;1.87;;;;;;;;;;5034704;28;20258;-75
2023/12/12 09:37:14;;;;;;;5.27;2.27;;;;;;;;;;5034674;28;20271;-75
2023/12/12 09:39:39;;;;;;;5.40;1.42;;;;;;;;;;5017043;28;20297;-76
2023/12/12 09:42:11;;;;;;;3.57;1.43;;;;;;;;;;5017228;28;20025;-76
2023/12/12 09:44:37;;;;;;;3.45;1.30;;;;;;;;;;5034917;28;20336;-76
2023/12/12 09:47:03;;;;;;;3.78;1.50;;;;;;;;;;5034111;28;20034;-75
2023/12/12 09:49:30;;;;;;;6.63;1.75;;;;;;;;;;5015798;28;20044;-76
2023/12/12 09:51:55;;;;;;;4.50;1.65;;;;;;;;;;5033900;28;20036;-75
2023/12/12 09:54:21;;;;;;;2.67;1.33;;;;;;;;;;5034726;28;20025;-75
2023/12/12 09:56:47;;;;;;;3.78;1.45;;;;;;;;;;5016837;28;20110;-75
2023/12/12 09:59:12;;;;;;;5.03;1.45;;;;;;;;;;5034491;28;20021;-77
2023/12/12 10:01:39;;;;;;;8.70;1.70;;;;;;;;;;5034994;28;20396;-77
2023/12/12 10:04:09;;;;;;;12.05;1.90;;;;;;;;;;5034728;28;20044;-76
2023/12/12 10:06:39;;;;;;;5.03;1.83;;;;;;;;;;5017621;28;20021;-78
2023/12/12 10:09:09;;;;;;;8.48;1.83;;;;;;;;;;5017107;28;20056;-76
2023/12/12 10:11:34;;;;;;;5.47;1.80;;;;;;;;;;5021096;28;20057;-77
2023/12/12 10:14:00;;;;;;;4.75;1.73;;;;;;;;;;5018292;28;20028;-77
2023/12/12 10:16:26;;;;;;;5.80;1.80;;;;;;;;;;5018470;28;20075;-78
2023/12/12 10:18:54;;;;;;;4.75;1.80;;;;;;;;;;5035928;28;20486;-77
2023/12/12 10:21:20;;;;;;;5.10;2.00;;;;;;;;;;5035755;28;20021;-75
2023/12/12 10:23:50;;;;;;;5.35;1.70;;;;;;;;;;5016795;28;20025;-76
2023/12/12 10:26:36;;;;;;;5.32;1.80;;;;;;;;;;5017506;28;20103;-76
2023/12/12 10:29:02;;;;;;;6.43;1.98;;;;;;;;;;5034967;28;20485;-76
2023/12/12 10:31:28;;;;;;;6.68;1.65;;;;;;;;;;5034694;28;20076;-75
2023/12/12 10:33:55;;;;;;;8.27;1.90;;;;;;;;;;5034757;28;20064;-76
2023/12/12 10:36:20;;;;;;;5.97;1.90;;;;;;;;;;5035009;28;20029;-75
2023/12/12 10:38:46;;;;;;;6.55;2.20;;;;;;;;;;5034953;28;20392;-76
2023/12/12 10:41:16;;;;;;;5.17;1.87;;;;;;;;;;5038129;28;20029;-78
2023/12/12 10:43:44;;;;;;;2.75;1.50;;;;;;;;;;5036347;28;20258;-77
2023/12/12 10:46:17;;;;;;;8.15;1.45;;;;;;;;;;5035800;28;20101;-77
2023/12/12 10:48:46;;;;;;;6.22;1.77;;;;;;;;;;5018495;28;20021;-77
2023/12/12 10:51:12;;;;;;;5.47;1.42;;;;;;;;;;5033909;28;20072;-77
2023/12/12 10:53:40;;;;;;;5.53;1.48;;;;;;;;;;5034452;28;20463;-77
2023/12/12 10:56:06;;;;;;;5.28;1.35;;;;;;;;;;5034962;28;20419;-77
2023/12/12 10:58:33;;;;;;;2.35;1.13;;;;;;;;;;5017193;28;20588;-77
2023/12/12 11:00:59;;;;;;;3.65;1.40;;;;;;;;;;5034833;28;20053;-77
2023/12/12 11:03:24;;;;;;;3.92;1.08;;;;;;;;;;5016816;28;20037;-76
2023/12/12 11:05:50;;;;;;;5.22;1.40;;;;;;;;;;5016738;28;20071;-76
2023/12/12 11:08:16;;;;;;;6.93;1.40;;;;;;;;;;5017107;28;20060;-77
2023/12/12 11:10:42;;;;;;;3.13;1.17;;;;;;;;;;5034697;28;20029;-78
2023/12/12 11:13:08;;;;;;;4.50;1.42;;;;;;;;;;5016888;28;20033;-76
2023/12/12 11:15:34;;;;;;;4.10;1.30;;;;;;;;;;5034093;28;20032;-77
2023/12/12 11:17:59;;;;;;;3.72;1.15;;;;;;;;;;5034091;28;20026;-77
2023/12/12 11:20:25;;;;;;;7.13;1.38;;;;;;;;;;5034134;28;20112;-77
2023/12/12 11:22:51;;;;;;;3.20;1.40;;;;;;;;;;5034098;28;20026;-75
2023/12/12 11:25:19;;;;;;;7.50;1.30;;;;;;;;;;5034081;28;20468;-77
2023/12/12 11:27:50;;;;;;;3.50;1.10;;;;;;;;;;5016403;28;20499;-77
2023/12/12 11:30:18;;;;;;;6.95;1.42;;;;;;;;;;5033751;28;20104;-78
2023/12/12 11:32:44;;;;;;;3.50;1.33;;;;;;;;;;5016688;28;20392;-76
2023/12/12 11:35:25;;;;;;;6.32;1.30;;;;;;;;;;5033395;28;20040;-77
2023/12/12 11:37:52;;;;;;;4.35;1.40;;;;;;;;;;5033982;28;20067;-77
2023/12/12 11:40:17;;;;;;;6.93;1.10;;;;;;;;;;5033830;28;20029;-78
2023/12/12 11:42:45;;;;;;;5.65;1.80;;;;;;;;;;5033747;28;20555;-77
2023/12/12 11:45:10;;;;;;;3.08;1.10;;;;;;;;;;5034782;28;20079;-77
2023/12/12 11:47:35;;;;;;;5.75;1.52;;;;;;;;;;5015453;28;20116;-77
2023/12/12 11:50:15;;;;;;;4.65;1.40;;;;;;;;;;5032988;28;20497;-77
2023/12/12 11:52:40;;;;;;;4.20;1.23;;;;;;;;;;5037126;28;20028;-78
2023/12/12 11:55:06;;;;;;;8.80;1.50;;;;;;;;;;5037238;28;20026;-77
2023/12/12 11:57:32;;;;;;;4.28;1.23;;;;;;;;;;5019673;28;20052;-78
2023/12/12 12:00:04;;;;;;;4.60;1.10;;;;;;;;;;5037753;28;20477;-77
2023/12/12 12:02:30;;;;;;;4.47;1.30;;;;;;;;;;5019435;28;20029;-76
2023/12/12 12:04:57;;;;;;;2.78;1.30;;;;;;;;;;5036482;28;20412;-75
2023/12/12 12:07:22;;;;;;;3.63;1.15;;;;;;;;;;5036745;28;20017;-77
2023/12/12 12:09:49;;;;;;;4.13;1.20;;;;;;;;;;5018788;28;20036;-77
2023/12/12 12:12:15;;;;;;;4.60;1.10;;;;;;;;;;5037286;28;20026;-77
2023/12/12 12:14:41;;;;;;;9.05;1.20;;;;;;;;;;5024205;28;20025;-78
2023/12/12 12:17:06;;;;;;;10.93;1.17;;;;;;;;;;5042434;28;20496;-77
2023/12/12 12:19:33;;;;;;;2.67;1.10;;;;;;;;;;5018869;28;20029;-77
2023/12/12 12:22:08;;;;;;;4.20;1.15;;;;;;;;;;5036724;28;20028;-78
2023/12/12 12:24:41;;;;;;;2.78;1.05;;;;;;;;;;5019440;28;20030;-75
2023/12/12 12:27:06;;;;;;;3.90;1.45;;;;;;;;;;5037987;28;20068;-79
2023/12/12 12:29:31;;;;;;;3.63;1.20;;;;;;;;;;5037900;28;20159;-77
2023/12/12 12:32:12;;;;;;;1.83;1.00;;;;;;;;;;5036738;28;20037;-76
2023/12/12 12:34:38;;;;;;;4.20;1.23;;;;;;;;;;5035771;28;20262;-76
2023/12/12 12:37:03;;;;;;;4.75;1.30;;;;;;;;;;5035958;28;20026;-75
2023/12/12 12:39:28;;;;;;;3.17;1.20;;;;;;;;;;5035721;28;20116;-75
2023/12/12 12:41:54;;;;;;;3.95;1.10;;;;;;;;;;5035974;28;20380;-76
2023/12/12 12:44:20;;;;;;;5.43;1.20;;;;;;;;;;5017790;28;20025;-76
2023/12/12 12:46:55;;;;;;;5.88;1.35;;;;;;;;;;5035627;28;20369;-76
2023/12/12 12:49:20;;;;;;;7.13;1.52;;;;;;;;;;5036275;28;20037;-76
2023/12/12 12:51:50;;;;;;;4.05;1.35;;;;;;;;;;5035770;28;20099;-77
2023/12/12 12:54:16;;;;;;;3.28;1.13;;;;;;;;;;5033223;23;20377;-77
2023/12/12 12:56:49;;;;;;;3.13;1.10;;;;;;;;;;5036165;28;20079;-76
2023/12/12 12:59:18;;;;;;;5.93;1.50;;;;;;;;;;5036557;28;20029;-77
2023/12/12 13:01:46;;;;;;;5.68;1.42;;;;;;;;;;5017317;28;20064;-78
2023/12/12 13:04:11;;;;;;;5.68;1.40;;;;;;;;;;5035331;28;20392;-77
2023/12/12 13:06:40;;;;;;;2.00;1.13;;;;;;;;;;5018882;28;20044;-78
2023/12/12 13:09:17;;;;;;;7.53;1.60;;;;;;;;;;5018656;28;20021;-78
2023/12/12 13:11:43;;;;;;;5.97;1.52;;;;;;;;;;5036613;28;20018;-77
2023/12/12 13:14:08;;;;;;;4.40;1.58;;;;;;;;;;5018265;28;20037;-77
2023/12/12 13:16:34;;;;;;;3.40;1.10;;;;;;;;;;5036229;28;20051;-78
2023/12/12 13:18:59;;;;;;;5.50;1.70;;;;;;;;;;5018870;28;20512;-78
2023/12/12 13:21:24;;;;;;;3.65;1.40;;;;;;;;;;5019346;28;20021;-76
2023/12/12 13:23:50;;;;;;;8.05;1.90;;;;;;;;;;5037446;28;20463;-77
2023/12/12 13:26:15;;;;;;;5.07;1.58;;;;;;;;;;5019569;28;20025;-79
2023/12/12 13:28:40;;;;;;;8.43;2.00;;;;;;;;;;5037433;28;20033;-76
2023/12/12 13:31:05;;;;;;;5.22;1.88;;;;;;;;;;5035925;28;20132;-77
2023/12/12 13:33:31;;;;;;;3.10;1.30;;;;;;;;;;5035030;28;20048;-78
2023/12/12 13:35:56;;;;;;;7.15;1.90;;;;;;;;;;5036174;28;20317;-77
2023/12/12 13:38:21;;;;;;;5.13;1.42;;;;;;;;;;5017495;28;20021;-77
2023/12/12 13:40:46;;;;;;;3.70;1.40;;;;;;;;;;5036156;28;20029;-77
2023/12/12 13:43:12;;;;;;;4.87;1.57;;;;;;;;;;5036623;28;20271;-78
2023/12/12 13:45:39;;;;;;;6.10;1.70;;;;;;;;;;5035949;28;20262;-78
2023/12/12 13:48:04;;;;;;;7.22;1.67;;;;;;;;;;5020231;28;20022;-77
2023/12/12 13:50:31;;;;;;;6.25;1.50;;;;;;;;;;5036720;28;20026;-78
2023/12/12 13:52:57;;;;;;;4.03;1.67;;;;;;;;;;5018022;28;20067;-77
2023/12/12 13:55:22;;;;;;;6.43;1.52;;;;;;;;;;5018508;28;20026;-78
2023/12/12 13:57:47;;;;;;;4.70;1.60;;;;;;;;;;5018899;28;20021;-78
2023/12/12 14:00:13;;;;;;;5.78;1.58;;;;;;;;;;5037300;28;20259;-77
2023/12/12 14:02:38;;;;;;;4.55;1.42;;;;;;;;;;5037114;28;20036;-77
2023/12/12 14:05:05;;;;;;;4.75;1.52;;;;;;;;;;5037394;28;20029;-78
2023/12/12 14:07:30;;;;;;;9.48;1.90;;;;;;;;;;5039030;28;20025;-78
2023/12/12 14:09:55;;;;;;;7.50;1.70;;;;;;;;;;5024906;28;20384;-79
2023/12/12 14:12:20;;;;;;;5.97;1.80;;;;;;;;;;5022472;28;20056;-79
2023/12/12 14:14:46;;;;;;;8.02;1.70;;;;;;;;;;5039775;28;20159;-79
2023/12/12 14:17:11;;;;;;;9.43;1.70;;;;;;;;;;5039890;28;20030;-78
2023/12/12 14:19:36;;;;;;;6.75;1.63;;;;;;;;;;5035587;28;20350;-78
2023/12/12 14:22:03;;;;;;;8.20;1.60;;;;;;;;;;5035919;28;20057;-77
2023/12/12 14:24:30;;;;;;;11.35;2.40;;;;;;;;;;5035180;28;20139;-77
2023/12/12 14:26:55;;;;;;;11.27;2.00;;;;;;;;;;5035428;28;20024;-77
2023/12/12 14:29:22;;;;;;;11.65;2.00;;;;;;;;;;5035300;28;20021;-77
2023/12/12 14:31:48;;;;;;;15.65;3.20;;;;;;;;;;5035674;28;20036;-77
2023/12/12 14:34:17;;;;;;;7.78;2.78;;;;;;;;;;5036043;28;20026;-77
2023/12/12 14:36:42;;;;;;;7.60;2.30;;;;;;;;;;5017380;28;20021;-78